Time;durP1;ratioP1;P1;durP2;ratioP2;P2;SDS_P1;SDS_P2;PMS_P1;PMS_P2;Temp;Humidity;BMP_temperature;BMP_pressure;BME280_temperature;BME280_humidity;BME280_pressure;Samples;Min_cycle;Max_cycle;Signal;HPM_P1;HPM_P2
2023/06/08 00:01:17;;;;;;;7.97;5.60;;;;;;;;;;4954749;29;20572;-73
2023/06/08 00:04:22;;;;;;;6.50;5.00;;;;;;;;;;4943816;29;20184;-73
2023/06/08 00:07:27;;;;;;;5.97;5.30;;;;;;;;;;4969774;23;20246;-72
2023/06/08 00:10:31;;;;;;;6.50;5.73;;;;;;;;;;4954918;29;20187;-72
2023/06/08 00:13:35;;;;;;;7.47;5.67;;;;;;;;;;4955496;29;20208;-72
2023/06/08 00:16:40;;;;;;;5.97;5.13;;;;;;;;;;4955199;29;20187;-72
2023/06/08 00:19:44;;;;;;;5.83;5.23;;;;;;;;;;4955450;29;20183;-71
2023/06/08 00:22:48;;;;;;;8.47;5.33;;;;;;;;;;4955466;29;20215;-72
2023/06/08 00:25:52;;;;;;;6.53;5.50;;;;;;;;;;4955046;29;20199;-71
2023/06/08 00:28:56;;;;;;;7.13;5.47;;;;;;;;;;4955259;29;20195;-72
2023/06/08 00:32:01;;;;;;;6.70;5.80;;;;;;;;;;4955218;29;20219;-73
2023/06/08 00:35:05;;;;;;;6.33;5.47;;;;;;;;;;4955262;29;20172;-71
2023/06/08 00:38:09;;;;;;;6.10;5.47;;;;;;;;;;4954365;29;20203;-72
2023/06/08 00:41:16;;;;;;;6.63;5.93;;;;;;;;;;4943959;29;20219;-72
2023/06/08 00:44:20;;;;;;;6.73;5.80;;;;;;;;;;4954093;29;20175;-72
2023/06/08 00:47:25;;;;;;;8.07;5.53;;;;;;;;;;4954611;29;20527;-71
2023/06/08 00:50:31;;;;;;;6.43;5.83;;;;;;;;;;4943026;29;20203;-72
2023/06/08 00:53:37;;;;;;;6.73;5.70;;;;;;;;;;4954900;29;20231;-71
2023/06/08 00:56:48;;;;;;;7.80;5.63;;;;;;;;;;4954366;29;20187;-72
2023/06/08 00:59:53;;;;;;;6.27;5.63;;;;;;;;;;4965909;28;20184;-72
2023/06/08 01:02:58;;;;;;;7.33;5.97;;;;;;;;;;4945406;29;20635;-72
2023/06/08 01:06:03;;;;;;;7.13;6.43;;;;;;;;;;4969039;28;20179;-72
2023/06/08 01:09:16;;;;;;;6.30;5.70;;;;;;;;;;4957575;29;20206;-72
2023/06/08 01:12:35;;;;;;;7.80;6.53;;;;;;;;;;4957736;29;20215;-71
2023/06/08 01:15:44;;;;;;;7.47;6.67;;;;;;;;;;4958061;29;20643;-72
2023/06/08 01:18:53;;;;;;;7.40;6.67;;;;;;;;;;4957738;29;20631;-72
2023/06/08 01:22:29;;;;;;;8.43;6.40;;;;;;;;;;4957630;29;20219;-72
2023/06/08 01:25:35;;;;;;;9.30;6.27;;;;;;;;;;4957932;29;20635;-71
2023/06/08 01:28:39;;;;;;;7.47;6.50;;;;;;;;;;4958310;29;20183;-71
2023/06/08 01:31:44;;;;;;;7.30;6.60;;;;;;;;;;4968455;28;20219;-72
2023/06/08 01:34:48;;;;;;;7.50;6.43;;;;;;;;;;4957401;29;20211;-72
2023/06/08 01:37:58;;;;;;;6.80;5.67;;;;;;;;;;4957092;29;20551;-71
2023/06/08 01:41:10;;;;;;;10.03;6.43;;;;;;;;;;4957030;29;20219;-71
2023/06/08 01:44:18;;;;;;;9.07;6.97;;;;;;;;;;4957070;29;20175;-72
2023/06/08 01:47:37;;;;;;;8.43;6.90;;;;;;;;;;4957224;29;20183;-72
2023/06/08 01:50:43;;;;;;;8.17;6.30;;;;;;;;;;4958356;29;20203;-71
2023/06/08 01:53:47;;;;;;;8.10;7.10;;;;;;;;;;4957912;29;20211;-72
2023/06/08 01:56:51;;;;;;;8.90;7.17;;;;;;;;;;4946106;29;20188;-72
2023/06/08 01:59:55;;;;;;;7.10;6.20;;;;;;;;;;4957079;29;20534;-71
2023/06/08 02:02:59;;;;;;;8.90;6.70;;;;;;;;;;4957216;29;20516;-71
2023/06/08 02:06:03;;;;;;;9.20;6.63;;;;;;;;;;4956918;29;20183;-72
2023/06/08 02:09:10;;;;;;;8.03;7.20;;;;;;;;;;4957361;29;20211;-72
2023/06/08 02:12:16;;;;;;;10.03;7.30;;;;;;;;;;4957261;29;20219;-72
2023/06/08 02:15:20;;;;;;;10.27;6.70;;;;;;;;;;4956771;29;20184;-72
2023/06/08 02:18:25;;;;;;;7.97;7.17;;;;;;;;;;4957234;29;20187;-71
2023/06/08 02:21:29;;;;;;;7.97;7.03;;;;;;;;;;4956553;29;20223;-72
2023/06/08 02:24:33;;;;;;;8.17;6.63;;;;;;;;;;4945626;29;20184;-72
2023/06/08 02:27:37;;;;;;;10.60;6.20;;;;;;;;;;4956424;29;20195;-72
2023/06/08 02:30:41;;;;;;;7.73;6.93;;;;;;;;;;4945695;29;20179;-72
2023/06/08 02:33:46;;;;;;;7.80;7.00;;;;;;;;;;4956350;29;20207;-72
2023/06/08 02:36:50;;;;;;;7.57;6.77;;;;;;;;;;4956417;29;20619;-72
2023/06/08 02:39:54;;;;;;;7.57;6.77;;;;;;;;;;4956326;29;20188;-72
2023/06/08 02:42:59;;;;;;;8.57;7.67;;;;;;;;;;4956145;29;20184;-72
2023/06/08 02:46:03;;;;;;;8.63;7.23;;;;;;;;;;4956174;29;20204;-72
2023/06/08 02:49:08;;;;;;;9.17;7.03;;;;;;;;;;4944873;29;20535;-72
2023/06/08 02:52:13;;;;;;;8.03;7.20;;;;;;;;;;4944823;29;20223;-70
2023/06/08 02:55:17;;;;;;;8.10;7.20;;;;;;;;;;4957076;29;20187;-71
2023/06/08 02:58:23;;;;;;;10.37;7.13;;;;;;;;;;4955799;29;20643;-71
2023/06/08 03:01:30;;;;;;;8.07;7.27;;;;;;;;;;4955573;29;20215;-71
2023/06/08 03:04:52;;;;;;;8.80;7.57;;;;;;;;;;4955817;29;20176;-71
2023/06/08 03:07:58;;;;;;;8.80;6.83;;;;;;;;;;4955367;29;20211;-71
2023/06/08 03:11:03;;;;;;;9.30;7.50;;;;;;;;;;4955621;29;20564;-71
2023/06/08 03:14:07;;;;;;;9.10;7.27;;;;;;;;;;4955581;29;20219;-71
2023/06/08 03:17:12;;;;;;;8.53;7.47;;;;;;;;;;4944682;29;20195;-71
2023/06/08 03:20:19;;;;;;;12.57;7.67;;;;;;;;;;4955531;29;20192;-71
2023/06/08 03:23:35;;;;;;;9.63;7.10;;;;;;;;;;4955984;29;20195;-71
2023/06/08 03:26:42;;;;;;;7.93;7.10;;;;;;;;;;4955101;29;20184;-71
2023/06/08 03:29:48;;;;;;;9.73;7.00;;;;;;;;;;4955104;29;20179;-71
2023/06/08 03:32:52;;;;;;;8.13;7.33;;;;;;;;;;4944403;29;20538;-72
2023/06/08 03:36:03;;;;;;;7.90;7.10;;;;;;;;;;4956156;29;20180;-71
2023/06/08 03:39:17;;;;;;;10.93;8.20;;;;;;;;;;4955466;29;20659;-71
2023/06/08 03:42:21;;;;;;;9.27;7.20;;;;;;;;;;4954848;29;20215;-71
2023/06/08 03:45:30;;;;;;;9.23;7.57;;;;;;;;;;4955095;29;20195;-71
2023/06/08 03:48:35;;;;;;;8.33;7.40;;;;;;;;;;4954787;29;20195;-71
2023/06/08 03:51:40;;;;;;;8.47;7.53;;;;;;;;;;4955021;29;20223;-71
2023/06/08 03:54:45;;;;;;;9.50;7.43;;;;;;;;;;4955444;29;20227;-71
2023/06/08 03:57:50;;;;;;;8.63;7.73;;;;;;;;;;4954854;29;20188;-71
2023/06/08 04:00:56;;;;;;;13.23;8.47;;;;;;;;;;4954555;29;20223;-71
2023/06/08 04:04:01;;;;;;;10.33;7.50;;;;;;;;;;4954529;29;20191;-71
2023/06/08 04:07:05;;;;;;;11.80;7.97;;;;;;;;;;4954803;29;20184;-71
2023/06/08 04:10:10;;;;;;;8.93;8.03;;;;;;;;;;4955043;29;20507;-71
2023/06/08 04:13:14;;;;;;;8.90;7.33;;;;;;;;;;4954458;29;20203;-72
2023/06/08 04:16:20;;;;;;;7.73;6.93;;;;;;;;;;4943735;29;20199;-72
2023/06/08 04:19:28;;;;;;;10.70;6.70;;;;;;;;;;4954377;29;20203;-73
2023/06/08 04:22:34;;;;;;;8.23;7.23;;;;;;;;;;4954467;29;20215;-73
2023/06/08 04:25:38;;;;;;;9.37;7.10;;;;;;;;;;4943479;29;20175;-73
2023/06/08 04:28:42;;;;;;;7.90;6.73;;;;;;;;;;4943237;29;20183;-73
2023/06/08 04:31:47;;;;;;;8.17;7.17;;;;;;;;;;4943670;29;20227;-73
2023/06/08 04:34:51;;;;;;;7.07;6.37;;;;;;;;;;4954006;29;20226;-73
2023/06/08 04:37:56;;;;;;;7.07;6.23;;;;;;;;;;4958558;28;20187;-73
2023/06/08 04:41:01;;;;;;;8.43;6.57;;;;;;;;;;4958410;29;20219;-73
2023/06/08 04:44:13;;;;;;;9.77;7.47;;;;;;;;;;4958007;29;20184;-73
2023/06/08 04:47:17;;;;;;;8.77;7.03;;;;;;;;;;4958219;29;20643;-73
2023/06/08 04:50:22;;;;;;;8.37;7.43;;;;;;;;;;4958185;29;20630;-73
2023/06/08 04:53:26;;;;;;;8.83;7.87;;;;;;;;;;4957942;29;20175;-73
2023/06/08 04:56:33;;;;;;;9.43;7.57;;;;;;;;;;4958034;29;20184;-73
2023/06/08 04:59:37;;;;;;;8.73;7.83;;;;;;;;;;4958003;29;20187;-73
2023/06/08 05:02:44;;;;;;;9.60;7.43;;;;;;;;;;4957764;29;20222;-73
2023/06/08 05:05:48;;;;;;;7.60;6.90;;;;;;;;;;4958410;29;20183;-73
2023/06/08 05:08:52;;;;;;;8.20;7.30;;;;;;;;;;4957397;29;20203;-73
2023/06/08 05:11:56;;;;;;;8.67;7.40;;;;;;;;;;4958577;29;20219;-73
2023/06/08 05:15:02;;;;;;;8.10;7.30;;;;;;;;;;4946618;29;20223;-73
2023/06/08 05:18:06;;;;;;;9.87;7.03;;;;;;;;;;4957694;29;20627;-72
2023/06/08 05:21:10;;;;;;;9.63;7.87;;;;;;;;;;4957476;29;20219;-73
2023/06/08 05:24:14;;;;;;;10.33;7.90;;;;;;;;;;4958596;29;20184;-73
2023/06/08 05:27:19;;;;;;;7.30;6.53;;;;;;;;;;4958235;29;20184;-73
2023/06/08 05:30:23;;;;;;;7.97;7.17;;;;;;;;;;4958258;29;20183;-73
2023/06/08 05:33:27;;;;;;;7.83;7.03;;;;;;;;;;4957178;29;20199;-73
2023/06/08 05:36:31;;;;;;;11.30;7.60;;;;;;;;;;4946350;29;20187;-76
2023/06/08 05:39:36;;;;;;;8.50;7.60;;;;;;;;;;4958049;29;20183;-73
2023/06/08 05:42:39;;;;;;;8.63;7.30;;;;;;;;;;4958008;29;20215;-73
2023/06/08 05:45:45;;;;;;;9.53;7.37;;;;;;;;;;4957672;29;20191;-71
2023/06/08 05:48:49;;;;;;;9.40;8.47;;;;;;;;;;4956979;28;20535;-73
2023/06/08 05:51:53;;;;;;;9.40;8.07;;;;;;;;;;4945806;29;20559;-73
2023/06/08 05:54:58;;;;;;;7.80;7.10;;;;;;;;;;4957762;29;20219;-71
2023/06/08 05:58:02;;;;;;;12.10;9.63;;;;;;;;;;4956873;29;20203;-73
2023/06/08 06:01:07;;;;;;;10.97;9.50;;;;;;;;;;4957468;29;20214;-73
2023/06/08 06:04:11;;;;;;;10.73;8.47;;;;;;;;;;4957237;29;20184;-73
2023/06/08 06:07:15;;;;;;;9.60;8.57;;;;;;;;;;4957505;29;20195;-73
2023/06/08 06:10:19;;;;;;;9.27;8.13;;;;;;;;;;4971533;23;20234;-73
2023/06/08 06:13:24;;;;;;;8.80;7.30;;;;;;;;;;4938261;29;20180;-72
2023/06/08 06:16:28;;;;;;;9.10;8.10;;;;;;;;;;4937238;29;20192;-74
2023/06/08 06:19:36;;;;;;;9.40;6.83;;;;;;;;;;4938142;29;20180;-73
2023/06/08 06:22:40;;;;;;;7.67;6.40;;;;;;;;;;4937213;29;20215;-73
2023/06/08 06:25:50;;;;;;;7.10;6.40;;;;;;;;;;4937463;29;20173;-73
2023/06/08 06:28:54;;;;;;;6.47;5.80;;;;;;;;;;4937906;29;20184;-73
2023/06/08 06:31:58;;;;;;;7.27;5.30;;;;;;;;;;4948349;29;20290;-73
2023/06/08 06:35:02;;;;;;;6.27;5.47;;;;;;;;;;4937983;29;20208;-73
2023/06/08 06:38:06;;;;;;;8.93;6.40;;;;;;;;;;4936998;29;20184;-72
2023/06/08 06:41:11;;;;;;;7.10;5.63;;;;;;;;;;4937825;29;20259;-73
2023/06/08 06:44:15;;;;;;;7.03;5.43;;;;;;;;;;4947869;29;20184;-73
2023/06/08 06:47:20;;;;;;;4.90;4.50;;;;;;;;;;4937895;29;20180;-73
2023/06/08 06:50:24;;;;;;;5.40;4.80;;;;;;;;;;4937742;29;20533;-73
2023/06/08 06:53:29;;;;;;;5.00;4.40;;;;;;;;;;4937754;29;20184;-73
2023/06/08 06:56:33;;;;;;;5.13;4.63;;;;;;;;;;4936920;29;20188;-72
2023/06/08 06:59:37;;;;;;;4.93;4.53;;;;;;;;;;4936693;29;20521;-73
2023/06/08 07:02:42;;;;;;;6.17;4.47;;;;;;;;;;4936456;29;20212;-72
2023/06/08 07:05:46;;;;;;;4.70;4.20;;;;;;;;;;4926015;29;20176;-73
2023/06/08 07:08:50;;;;;;;7.63;5.20;;;;;;;;;;4937324;29;20524;-73
2023/06/08 07:11:54;;;;;;;6.37;5.27;;;;;;;;;;4936373;29;20220;-73
2023/06/08 07:14:59;;;;;;;6.83;5.00;;;;;;;;;;4936168;29;20212;-72
2023/06/08 07:18:03;;;;;;;5.57;5.07;;;;;;;;;;4936483;29;20188;-73
2023/06/08 07:21:08;;;;;;;8.43;5.30;;;;;;;;;;4936381;29;20223;-73
2023/06/08 07:24:12;;;;;;;4.70;4.27;;;;;;;;;;4936414;29;20192;-72
2023/06/08 07:27:16;;;;;;;4.57;4.17;;;;;;;;;;4937125;29;20176;-72
2023/06/08 07:30:20;;;;;;;4.57;4.10;;;;;;;;;;4936781;29;20184;-72
2023/06/08 07:33:25;;;;;;;4.80;3.77;;;;;;;;;;4936700;29;20195;-72
2023/06/08 07:36:29;;;;;;;4.30;3.90;;;;;;;;;;4936623;29;20222;-72
2023/06/08 07:39:33;;;;;;;6.47;3.53;;;;;;;;;;4936901;29;20628;-73
2023/06/08 07:42:37;;;;;;;3.77;3.40;;;;;;;;;;4936533;29;20227;-73
2023/06/08 07:45:41;;;;;;;4.03;3.63;;;;;;;;;;4936809;29;20180;-73
2023/06/08 07:48:45;;;;;;;3.43;3.13;;;;;;;;;;4946989;29;20185;-72
2023/06/08 07:51:50;;;;;;;4.45;3.53;;;;;;;;;;4936423;29;20222;-73
2023/06/08 07:54:54;;;;;;;5.30;3.85;;;;;;;;;;4936667;29;20208;-73
2023/06/08 07:57:58;;;;;;;3.50;3.20;;;;;;;;;;4936281;29;20201;-73
2023/06/08 08:01:03;;;;;;;6.32;3.22;;;;;;;;;;4936225;29;20223;-73
2023/06/08 08:04:07;;;;;;;5.90;3.17;;;;;;;;;;4936788;29;20187;-73
2023/06/08 08:07:11;;;;;;;4.78;3.10;;;;;;;;;;4936286;29;20183;-73
2023/06/08 08:10:15;;;;;;;3.67;3.25;;;;;;;;;;4936201;29;20213;-73
2023/06/08 08:13:19;;;;;;;3.53;3.22;;;;;;;;;;4936080;29;20203;-73
2023/06/08 08:16:23;;;;;;;3.65;3.35;;;;;;;;;;4936087;29;20211;-74
2023/06/08 08:19:27;;;;;;;3.17;2.88;;;;;;;;;;4935551;29;20191;-73
2023/06/08 08:22:32;;;;;;;3.58;3.28;;;;;;;;;;4935970;29;20225;-73
2023/06/08 08:25:36;;;;;;;3.15;2.83;;;;;;;;;;4935503;29;20631;-74
2023/06/08 08:28:44;;;;;;;6.57;3.22;;;;;;;;;;4936022;29;20186;-73
2023/06/08 08:31:48;;;;;;;4.47;3.28;;;;;;;;;;4935860;29;20226;-73
2023/06/08 08:34:52;;;;;;;3.53;3.22;;;;;;;;;;4935791;29;20184;-74
2023/06/08 08:37:56;;;;;;;5.63;3.28;;;;;;;;;;4935762;29;20184;-74
2023/06/08 08:41:04;;;;;;;3.72;3.15;;;;;;;;;;4935114;29;20220;-73
2023/06/08 08:44:09;;;;;;;3.88;3.05;;;;;;;;;;4935636;29;20189;-73
2023/06/08 08:47:14;;;;;;;3.40;2.85;;;;;;;;;;4935788;29;20176;-74
2023/06/08 08:50:19;;;;;;;2.80;2.60;;;;;;;;;;4923937;29;20193;-74
2023/06/08 08:53:30;;;;;;;4.03;3.00;;;;;;;;;;4934876;29;20181;-74
2023/06/08 08:56:38;;;;;;;3.80;3.33;;;;;;;;;;4935023;29;20212;-73
2023/06/08 08:59:45;;;;;;;3.38;3.08;;;;;;;;;;4935797;29;20628;-74
2023/06/08 09:02:50;;;;;;;3.00;2.70;;;;;;;;;;4935495;29;20224;-74
2023/06/08 09:05:54;;;;;;;3.40;3.10;;;;;;;;;;4936138;29;20176;-73
2023/06/08 09:08:58;;;;;;;2.97;2.75;;;;;;;;;;4935504;29;20204;-73
2023/06/08 09:12:04;;;;;;;3.50;3.20;;;;;;;;;;4934862;29;20220;-73
2023/06/08 09:15:14;;;;;;;3.30;2.97;;;;;;;;;;4935721;29;20216;-74
2023/06/08 09:18:18;;;;;;;3.20;2.90;;;;;;;;;;4934916;29;20189;-74
2023/06/08 09:21:27;;;;;;;5.13;3.00;;;;;;;;;;4934721;29;20221;-73
2023/06/08 09:24:31;;;;;;;3.80;3.00;;;;;;;;;;4938277;29;20204;-73
2023/06/08 09:27:37;;;;;;;3.22;2.92;;;;;;;;;;4938223;29;20200;-74
2023/06/08 09:30:43;;;;;;;4.80;3.13;;;;;;;;;;4939062;29;20522;-73
2023/06/08 09:33:47;;;;;;;5.45;3.17;;;;;;;;;;4938365;29;20527;-73
2023/06/08 09:37:04;;;;;;;3.42;3.05;;;;;;;;;;4937927;29;20212;-73
2023/06/08 09:40:19;;;;;;;3.42;3.13;;;;;;;;;;4938984;29;20188;-74
2023/06/08 09:43:35;;;;;;;4.70;3.20;;;;;;;;;;4938809;29;20189;-74
2023/06/08 09:46:41;;;;;;;3.63;2.92;;;;;;;;;;4948753;29;20177;-73
2023/06/08 09:49:45;;;;;;;5.03;2.97;;;;;;;;;;4938527;29;20184;-74
2023/06/08 09:52:50;;;;;;;4.10;2.60;;;;;;;;;;4937751;29;20712;-73
2023/06/08 09:55:58;;;;;;;5.68;3.08;;;;;;;;;;4937811;29;20213;-74
2023/06/08 09:59:13;;;;;;;4.07;3.35;;;;;;;;;;4938365;29;20184;-74
2023/06/08 10:02:22;;;;;;;4.03;3.10;;;;;;;;;;4937498;29;20219;-74
2023/06/08 10:05:30;;;;;;;3.33;3.00;;;;;;;;;;4937810;29;20209;-74
2023/06/08 10:08:38;;;;;;;4.45;3.20;;;;;;;;;;4938512;29;20207;-73
2023/06/08 10:11:43;;;;;;;5.25;3.15;;;;;;;;;;4938486;29;20216;-73
2023/06/08 10:14:49;;;;;;;4.20;2.80;;;;;;;;;;4938331;29;20182;-74
2023/06/08 10:17:54;;;;;;;3.28;2.97;;;;;;;;;;4937342;29;20183;-74
2023/06/08 10:21:01;;;;;;;4.35;3.10;;;;;;;;;;4938246;29;20222;-73
2023/06/08 10:24:06;;;;;;;4.15;3.25;;;;;;;;;;4938022;29;20183;-74
2023/06/08 10:27:23;;;;;;;8.23;3.35;;;;;;;;;;4938211;29;20187;-74
2023/06/08 10:30:44;;;;;;;7.10;3.40;;;;;;;;;;4937038;29;20184;-74
2023/06/08 10:33:51;;;;;;;3.60;3.30;;;;;;;;;;4937262;29;20184;-74
2023/06/08 10:36:55;;;;;;;3.55;3.20;;;;;;;;;;4937927;29;20212;-73
2023/06/08 10:40:06;;;;;;;3.72;2.85;;;;;;;;;;4938018;29;20191;-73
2023/06/08 10:43:11;;;;;;;7.43;3.63;;;;;;;;;;4937015;29;20184;-74
2023/06/08 10:46:15;;;;;;;3.30;3.00;;;;;;;;;;4937065;29;20196;-73
2023/06/08 10:49:20;;;;;;;3.40;3.10;;;;;;;;;;4926223;29;20181;-74
2023/06/08 10:52:26;;;;;;;4.50;3.38;;;;;;;;;;4938308;29;20220;-73
2023/06/08 10:55:32;;;;;;;4.28;3.13;;;;;;;;;;4937333;29;20548;-73
2023/06/08 10:58:53;;;;;;;4.57;2.75;;;;;;;;;;4937522;29;20529;-74
2023/06/08 11:02:02;;;;;;;5.63;3.05;;;;;;;;;;4937384;29;20228;-74
2023/06/08 11:05:08;;;;;;;3.13;2.83;;;;;;;;;;4937591;29;20526;-75
2023/06/08 11:08:12;;;;;;;3.88;2.83;;;;;;;;;;4937274;29;20177;-74
2023/06/08 11:11:16;;;;;;;3.60;2.97;;;;;;;;;;4937323;29;20216;-74
2023/06/08 11:14:21;;;;;;;3.15;2.85;;;;;;;;;;4937102;29;20185;-74
2023/06/08 11:17:27;;;;;;;3.10;2.67;;;;;;;;;;4937379;29;20204;-74
2023/06/08 11:20:32;;;;;;;3.78;2.90;;;;;;;;;;4936826;29;20531;-73
2023/06/08 11:23:37;;;;;;;5.97;3.22;;;;;;;;;;4936750;29;20196;-74
2023/06/08 11:26:42;;;;;;;3.40;2.67;;;;;;;;;;4936796;29;20188;-74
2023/06/08 11:29:46;;;;;;;3.03;2.70;;;;;;;;;;4947244;29;20188;-75
2023/06/08 11:32:51;;;;;;;3.28;2.92;;;;;;;;;;4936902;29;20193;-74
2023/06/08 11:35:55;;;;;;;3.85;2.80;;;;;;;;;;4936508;29;20216;-74
2023/06/08 11:39:02;;;;;;;2.85;2.65;;;;;;;;;;4936893;29;20188;-74
2023/06/08 11:42:06;;;;;;;3.28;2.95;;;;;;;;;;4936657;29;20688;-75
2023/06/08 11:45:12;;;;;;;4.53;3.10;;;;;;;;;;4936267;29;20200;-74
2023/06/08 11:48:22;;;;;;;7.70;3.05;;;;;;;;;;4935945;29;20177;-74
2023/06/08 11:51:26;;;;;;;3.22;2.92;;;;;;;;;;4936231;29;20213;-74
2023/06/08 11:54:35;;;;;;;2.78;2.58;;;;;;;;;;4936231;29;20299;-74
2023/06/08 11:57:41;;;;;;;4.60;2.80;;;;;;;;;;4936594;29;20581;-75
2023/06/08 12:00:45;;;;;;;3.92;3.00;;;;;;;;;;4935605;29;20223;-74
2023/06/08 12:03:50;;;;;;;2.80;2.60;;;;;;;;;;4936724;29;20521;-74
2023/06/08 12:06:55;;;;;;;3.25;2.85;;;;;;;;;;4936165;29;20185;-74
2023/06/08 12:10:00;;;;;;;2.83;2.60;;;;;;;;;;4957923;23;20706;-72
2023/06/08 12:13:09;;;;;;;3.13;2.83;;;;;;;;;;4936413;29;20180;-74
2023/06/08 12:16:13;;;;;;;2.90;2.70;;;;;;;;;;4936333;29;20675;-72
2023/06/08 12:19:17;;;;;;;4.57;3.00;;;;;;;;;;4935948;29;20534;-72
2023/06/08 12:22:21;;;;;;;2.95;2.67;;;;;;;;;;4936095;29;20568;-72
2023/06/08 12:25:26;;;;;;;2.90;2.60;;;;;;;;;;4946392;29;20188;-73
2023/06/08 12:28:31;;;;;;;3.00;2.75;;;;;;;;;;4935252;29;20172;-72
2023/06/08 12:31:36;;;;;;;2.80;2.60;;;;;;;;;;4936149;29;20219;-72
2023/06/08 12:34:40;;;;;;;2.78;2.58;;;;;;;;;;4935986;29;20185;-72
2023/06/08 12:37:48;;;;;;;12.55;3.28;;;;;;;;;;4936043;29;20212;-72
2023/06/08 12:40:53;;;;;;;3.28;2.97;;;;;;;;;;4946385;29;20212;-72
2023/06/08 12:43:56;;;;;;;4.57;2.80;;;;;;;;;;4935100;29;20185;-72
2023/06/08 12:47:02;;;;;;;4.20;2.53;;;;;;;;;;4935279;29;20181;-72
2023/06/08 12:50:07;;;;;;;5.10;2.90;;;;;;;;;;4935774;29;20185;-72
2023/06/08 12:53:11;;;;;;;4.57;2.67;;;;;;;;;;4946001;29;20640;-72
2023/06/08 12:56:16;;;;;;;2.90;2.60;;;;;;;;;;4913473;29;20216;-72
2023/06/08 12:59:20;;;;;;;2.95;2.58;;;;;;;;;;4938464;29;20663;-72
2023/06/08 13:02:26;;;;;;;5.25;2.60;;;;;;;;;;4939453;29;20216;-72
2023/06/08 13:05:30;;;;;;;2.90;2.70;;;;;;;;;;4939479;29;20204;-72
2023/06/08 13:08:34;;;;;;;4.05;3.00;;;;;;;;;;4939473;29;20177;-72
2023/06/08 13:11:40;;;;;;;2.50;2.30;;;;;;;;;;4939621;29;20216;-72
2023/06/08 13:14:44;;;;;;;6.20;2.65;;;;;;;;;;4939357;29;20184;-72
2023/06/08 13:17:48;;;;;;;5.05;2.85;;;;;;;;;;4939479;29;20208;-72
2023/06/08 13:20:53;;;;;;;2.80;2.60;;;;;;;;;;4938961;29;20215;-72
2023/06/08 13:23:59;;;;;;;7.55;2.80;;;;;;;;;;4939147;29;20173;-71
2023/06/08 13:27:03;;;;;;;3.55;2.88;;;;;;;;;;4939344;29;20180;-72
2023/06/08 13:30:08;;;;;;;6.05;2.92;;;;;;;;;;4939042;29;20636;-72
2023/06/08 13:33:12;;;;;;;2.95;2.50;;;;;;;;;;4938954;29;20185;-71
2023/06/08 13:36:17;;;;;;;5.60;2.80;;;;;;;;;;4938061;29;20180;-71
2023/06/08 13:39:21;;;;;;;3.08;2.70;;;;;;;;;;4938864;29;20185;-71
2023/06/08 13:42:26;;;;;;;6.72;3.00;;;;;;;;;;4938745;29;20560;-71
2023/06/08 13:45:30;;;;;;;2.90;2.70;;;;;;;;;;4938764;29;20176;-71
2023/06/08 13:48:34;;;;;;;2.60;2.35;;;;;;;;;;4938727;29;20188;-71
2023/06/08 13:51:39;;;;;;;3.33;3.03;;;;;;;;;;4937780;29;20224;-71
2023/06/08 13:54:43;;;;;;;3.50;2.70;;;;;;;;;;4938595;29;20200;-71
2023/06/08 13:57:47;;;;;;;2.65;2.45;;;;;;;;;;4938622;29;20208;-72
2023/06/08 14:00:51;;;;;;;3.88;3.00;;;;;;;;;;4938934;29;20216;-72
2023/06/08 14:03:56;;;;;;;4.38;2.80;;;;;;;;;;4938714;29;20631;-72
2023/06/08 14:07:00;;;;;;;3.55;3.05;;;;;;;;;;4938357;29;20173;-72
2023/06/08 14:10:05;;;;;;;2.85;2.65;;;;;;;;;;4937118;29;20200;-73
2023/06/08 14:13:10;;;;;;;3.60;2.72;;;;;;;;;;4937445;29;20184;-72
2023/06/08 14:16:14;;;;;;;3.50;2.88;;;;;;;;;;4938232;29;20636;-72
2023/06/08 14:19:19;;;;;;;3.05;2.75;;;;;;;;;;4938151;29;20181;-72
2023/06/08 14:22:23;;;;;;;3.92;2.90;;;;;;;;;;4938092;29;20220;-72
2023/06/08 14:25:27;;;;;;;4.28;2.80;;;;;;;;;;4926289;29;20200;-72
2023/06/08 14:28:32;;;;;;;5.53;3.22;;;;;;;;;;4938121;29;20185;-72
2023/06/08 14:31:37;;;;;;;3.17;2.90;;;;;;;;;;4937872;29;20224;-73
2023/06/08 14:34:41;;;;;;;4.47;2.85;;;;;;;;;;4948140;29;20184;-72
2023/06/08 14:37:45;;;;;;;9.95;3.00;;;;;;;;;;4938038;29;20208;-71
2023/06/08 14:40:49;;;;;;;3.70;3.15;;;;;;;;;;4937903;29;20215;-71
2023/06/08 14:43:53;;;;;;;3.38;2.85;;;;;;;;;;4937738;29;20189;-71
2023/06/08 14:46:57;;;;;;;3.25;2.95;;;;;;;;;;4937512;29;20188;-71
2023/06/08 14:50:03;;;;;;;3.78;3.42;;;;;;;;;;4937849;29;20193;-71
2023/06/08 14:53:07;;;;;;;6.22;3.00;;;;;;;;;;4936531;29;20200;-71
2023/06/08 14:56:11;;;;;;;3.83;3.03;;;;;;;;;;4937310;29;20188;-72
2023/06/08 14:59:16;;;;;;;3.50;3.03;;;;;;;;;;4936488;29;20181;-72
2023/06/08 15:02:20;;;;;;;4.20;2.90;;;;;;;;;;4937154;29;20216;-71
2023/06/08 15:05:24;;;;;;;2.70;2.50;;;;;;;;;;4937204;29;20184;-72
2023/06/08 15:08:28;;;;;;;3.13;2.83;;;;;;;;;;4937394;29;20188;-72
2023/06/08 15:11:32;;;;;;;4.78;3.00;;;;;;;;;;4936942;29;20232;-72
2023/06/08 15:14:36;;;;;;;4.15;3.30;;;;;;;;;;4937295;29;20620;-72
2023/06/08 15:17:40;;;;;;;3.15;2.95;;;;;;;;;;4937166;29;20208;-72
2023/06/08 15:20:44;;;;;;;4.72;2.90;;;;;;;;;;4935372;29;20185;-71
2023/06/08 15:23:48;;;;;;;3.88;2.90;;;;;;;;;;4936368;29;20185;-71
2023/06/08 15:26:52;;;;;;;4.15;3.10;;;;;;;;;;4935950;29;20188;-72
2023/06/08 15:29:57;;;;;;;3.28;2.97;;;;;;;;;;4936852;29;20180;-72
2023/06/08 15:33:01;;;;;;;5.22;2.95;;;;;;;;;;4937064;29;20188;-71
2023/06/08 15:36:06;;;;;;;3.20;2.90;;;;;;;;;;4936850;29;20520;-72
2023/06/08 15:39:10;;;;;;;4.07;3.13;;;;;;;;;;4936684;29;20188;-72
2023/06/08 15:42:14;;;;;;;3.35;3.08;;;;;;;;;;4936599;29;20225;-73
2023/06/08 15:45:18;;;;;;;3.30;3.00;;;;;;;;;;4936506;29;20194;-73
2023/06/08 15:48:22;;;;;;;3.83;2.95;;;;;;;;;;4936849;29;20182;-73
2023/06/08 15:51:30;;;;;;;5.15;3.50;;;;;;;;;;4935849;29;20211;-73
2023/06/08 15:54:37;;;;;;;6.95;3.28;;;;;;;;;;4924628;29;20670;-73
2023/06/08 15:57:41;;;;;;;5.53;4.10;;;;;;;;;;4936535;29;20227;-73
2023/06/08 16:00:45;;;;;;;4.13;3.35;;;;;;;;;;4935323;29;20197;-72
2023/06/08 16:03:49;;;;;;;5.40;3.40;;;;;;;;;;4936695;29;20520;-73
2023/06/08 16:06:53;;;;;;;4.35;3.60;;;;;;;;;;4935674;29;20187;-73
2023/06/08 16:09:59;;;;;;;4.35;3.53;;;;;;;;;;4946223;29;20205;-73
2023/06/08 16:13:04;;;;;;;4.05;3.42;;;;;;;;;;4936215;29;20191;-73
2023/06/08 16:16:08;;;;;;;6.03;3.70;;;;;;;;;;4936285;29;20185;-74
2023/06/08 16:19:12;;;;;;;4.67;3.47;;;;;;;;;;4935327;29;20213;-74
2023/06/08 16:22:16;;;;;;;3.53;3.23;;;;;;;;;;4935996;29;20222;-73
2023/06/08 16:25:20;;;;;;;6.73;3.60;;;;;;;;;;4936145;29;20184;-73
2023/06/08 16:28:24;;;;;;;6.83;3.40;;;;;;;;;;4936049;29;20187;-73
2023/06/08 16:31:31;;;;;;;3.87;3.47;;;;;;;;;;4936245;29;20220;-73
2023/06/08 16:34:35;;;;;;;4.60;3.50;;;;;;;;;;4936070;29;20184;-72
2023/06/08 16:37:40;;;;;;;4.83;3.47;;;;;;;;;;4935814;29;20215;-73
2023/06/08 16:40:44;;;;;;;4.90;3.50;;;;;;;;;;4935962;29;20185;-73
2023/06/08 16:43:47;;;;;;;4.00;3.63;;;;;;;;;;4935759;29;20203;-73
2023/06/08 16:46:54;;;;;;;10.10;3.90;;;;;;;;;;4935671;29;20199;-73
2023/06/08 16:49:58;;;;;;;7.93;5.83;;;;;;;;;;4934873;29;20204;-72
2023/06/08 16:53:02;;;;;;;4.90;4.03;;;;;;;;;;4935633;29;20551;-73
2023/06/08 16:56:07;;;;;;;6.97;3.40;;;;;;;;;;4935147;29;20191;-73
2023/06/08 16:59:11;;;;;;;4.83;3.60;;;;;;;;;;4935694;29;20214;-73
2023/06/08 17:02:15;;;;;;;8.20;3.80;;;;;;;;;;4935469;29;20219;-73
2023/06/08 17:05:20;;;;;;;3.83;3.40;;;;;;;;;;4935533;29;20553;-73
2023/06/08 17:08:24;;;;;;;4.97;3.73;;;;;;;;;;4935484;29;20194;-75
2023/06/08 17:11:30;;;;;;;6.30;4.20;;;;;;;;;;4934625;29;20229;-74
2023/06/08 17:14:34;;;;;;;4.27;3.83;;;;;;;;;;4935174;29;20625;-74
2023/06/08 17:17:38;;;;;;;4.33;3.93;;;;;;;;;;4935724;29;20208;-74
2023/06/08 17:20:43;;;;;;;5.47;4.43;;;;;;;;;;4934768;29;20182;-73
2023/06/08 17:23:47;;;;;;;4.23;3.83;;;;;;;;;;4935317;29;20186;-74
2023/06/08 17:26:51;;;;;;;3.93;3.57;;;;;;;;;;4934822;29;20198;-74
2023/06/08 17:29:55;;;;;;;4.30;3.87;;;;;;;;;;4945876;29;20176;-73
2023/06/08 17:33:02;;;;;;;4.37;3.50;;;;;;;;;;4934590;29;20641;-73
2023/06/08 17:36:08;;;;;;;4.40;3.57;;;;;;;;;;4934537;29;20181;-73
2023/06/08 17:39:16;;;;;;;5.03;3.30;;;;;;;;;;4934614;29;20213;-73
2023/06/08 17:42:20;;;;;;;4.30;3.90;;;;;;;;;;4923977;29;20221;-73
2023/06/08 17:45:24;;;;;;;6.87;3.80;;;;;;;;;;4948202;29;20188;-73
2023/06/08 17:48:28;;;;;;;5.23;3.23;;;;;;;;;;4938901;29;20184;-73
2023/06/08 17:51:34;;;;;;;6.70;3.67;;;;;;;;;;4937683;29;20224;-73
2023/06/08 17:54:38;;;;;;;4.43;3.23;;;;;;;;;;4938817;29;20184;-73
2023/06/08 17:57:42;;;;;;;7.13;3.87;;;;;;;;;;4938393;29;20184;-73
2023/06/08 18:00:47;;;;;;;7.47;4.70;;;;;;;;;;4937864;29;20216;-73
2023/06/08 18:03:51;;;;;;;5.33;4.47;;;;;;;;;;4938863;29;20176;-73
2023/06/08 18:06:55;;;;;;;8.00;4.77;;;;;;;;;;4937659;29;20180;-73
2023/06/08 18:09:59;;;;;;;6.63;4.70;;;;;;;;;;4938151;29;20212;-76
2023/06/08 18:13:03;;;;;;;6.30;4.23;;;;;;;;;;4965889;23;20231;-73
2023/06/08 18:16:07;;;;;;;6.50;4.30;;;;;;;;;;4957273;29;20171;-72
2023/06/08 18:19:12;;;;;;;7.17;4.30;;;;;;;;;;4957128;29;20207;-72
2023/06/08 18:22:16;;;;;;;5.73;4.60;;;;;;;;;;4956324;29;20214;-73
2023/06/08 18:25:20;;;;;;;6.07;4.00;;;;;;;;;;4957439;29;20184;-73
2023/06/08 18:28:24;;;;;;;5.40;3.63;;;;;;;;;;4957098;29;20184;-73
2023/06/08 18:31:28;;;;;;;4.60;3.33;;;;;;;;;;4956089;29;20223;-72